createdAt,value
2022-12-13T00:04:13.881Z,32.95
2022-12-13T00:09:06.737Z,31.77
2022-12-13T00:14:00.650Z,30.67
2022-12-13T00:18:59.100Z,30.92
2022-12-13T00:23:53.045Z,32.30
2022-12-13T00:28:48.553Z,37.90
2022-12-13T00:33:42.389Z,30.83
2022-12-13T00:38:36.600Z,36.92
2022-12-13T00:43:29.708Z,34.08
2022-12-13T00:48:24.377Z,33.05
2022-12-13T00:53:18.889Z,30.77
2022-12-13T00:58:12.208Z,33.38
2022-12-13T01:03:20.871Z,30.70
2022-12-13T01:08:15.503Z,26.75
2022-12-13T01:13:09.688Z,27.20
2022-12-13T01:18:02.677Z,27.95
2022-12-13T01:22:56.390Z,37.55
2022-12-13T01:27:50.566Z,39.83
2022-12-13T01:32:43.944Z,35.17
2022-12-13T01:37:37.910Z,33.70
2022-12-13T01:42:32.110Z,37.60
2022-12-13T01:47:30.077Z,43.40
2022-12-13T01:52:24.152Z,38.38
2022-12-13T01:57:18.331Z,46.75
2022-12-13T02:02:13.737Z,48.58
2022-12-13T02:07:08.938Z,52.42
2022-12-13T02:12:07.238Z,44.38
2022-12-13T02:17:06.442Z,37.85
2022-12-13T02:27:05.494Z,35.65
2022-12-13T02:32:10.915Z,39.65
2022-12-13T02:37:23.386Z,39.50
2022-12-13T02:42:34.801Z,38.00
2022-12-13T02:47:30.333Z,33.50
2022-12-13T02:52:25.825Z,36.53
2022-12-13T02:57:39.209Z,36.50
2022-12-13T03:02:34.968Z,35.83
2022-12-13T03:07:33.670Z,36.10
2022-12-13T03:12:59.911Z,36.88
2022-12-13T03:17:57.174Z,34.05
2022-12-13T03:22:51.985Z,35.83
2022-12-13T03:27:45.357Z,37.00
2022-12-13T03:32:39.850Z,33.83
2022-12-13T03:37:33.766Z,33.25
2022-12-13T03:42:27.501Z,31.05
2022-12-13T03:47:21.671Z,30.05
2022-12-13T03:52:14.855Z,35.17
2022-12-13T03:57:08.231Z,32.25
2022-12-13T04:02:02.153Z,32.97
2022-12-13T04:06:57.746Z,30.88
2022-12-13T04:12:10.279Z,33.22
2022-12-13T04:17:03.970Z,31.40
2022-12-13T04:21:57.849Z,31.50
2022-12-13T04:26:51.637Z,28.77
2022-12-13T04:31:45.367Z,28.52
2022-12-13T04:36:39.752Z,29.63
2022-12-13T04:41:37.064Z,28.63
2022-12-13T04:46:30.602Z,26.77
2022-12-13T04:51:24.794Z,28.02
2022-12-13T04:56:18.824Z,30.88
2022-12-13T05:01:12.317Z,28.98
2022-12-13T05:06:27.243Z,26.45
2022-12-13T05:11:22.996Z,26.50
2022-12-13T05:16:24.871Z,27.13
2022-12-13T05:21:19.080Z,25.45
2022-12-13T05:26:12.822Z,26.95
2022-12-13T05:31:22.715Z,25.02
2022-12-13T05:36:17.524Z,25.02
2022-12-13T05:41:15.686Z,25.25
2022-12-13T05:46:09.741Z,26.08
2022-12-13T05:51:09.927Z,27.13
2022-12-13T05:56:06.542Z,24.42
2022-12-13T06:01:19.693Z,23.45
2022-12-13T06:06:13.513Z,21.02
2022-12-13T06:11:10.859Z,21.13
2022-12-13T06:16:06.949Z,21.58
2022-12-13T06:21:17.661Z,19.80
2022-12-13T06:26:11.898Z,22.95
2022-12-13T06:31:05.667Z,20.52
2022-12-13T06:35:59.503Z,19.83
2022-12-13T06:40:53.373Z,19.45
2022-12-13T06:45:46.986Z,20.92
2022-12-13T06:50:40.360Z,19.77
2022-12-13T06:55:33.151Z,21.42
2022-12-13T07:00:35.690Z,20.15
2022-12-13T07:05:31.261Z,21.58
2022-12-13T07:10:24.750Z,25.95
2022-12-13T07:15:18.790Z,21.27
2022-12-13T07:20:15.542Z,24.23
2022-12-13T07:25:08.467Z,26.88
2022-12-13T07:30:21.576Z,22.92
2022-12-13T07:35:15.771Z,22.33
2022-12-13T07:40:11.623Z,22.77
2022-12-13T07:45:05.731Z,20.38
2022-12-13T07:49:58.692Z,22.48
2022-12-13T07:54:52.826Z,21.65
2022-12-13T07:59:47.121Z,23.70
2022-12-13T08:04:43.158Z,19.48
2022-12-13T08:09:37.269Z,18.98
2022-12-13T08:14:31.760Z,18.67
2022-12-13T08:19:25.593Z,15.95
2022-12-13T08:24:20.124Z,16.95
2022-12-13T08:29:23.427Z,17.77
2022-12-13T08:34:26.829Z,19.50
2022-12-13T08:39:21.162Z,18.50
2022-12-13T08:44:14.146Z,17.17
2022-12-13T08:49:08.439Z,16.23
2022-12-13T08:54:11.235Z,15.85
2022-12-13T08:59:04.869Z,18.23
2022-12-13T09:03:58.429Z,18.17
2022-12-13T09:08:54.338Z,18.48
2022-12-13T09:13:47.473Z,18.88
2022-12-13T09:18:41.403Z,15.68
2022-12-13T09:23:36.849Z,17.45
2022-12-13T09:28:40.154Z,16.27
2022-12-13T09:33:41.514Z,16.00
2022-12-13T09:38:35.898Z,15.23
2022-12-13T09:43:33.461Z,15.35
2022-12-13T09:48:37.465Z,15.77
2022-12-13T09:53:33.492Z,16.23
2022-12-13T09:58:50.654Z,19.60
2022-12-13T10:03:48.151Z,18.67
2022-12-13T10:08:45.098Z,18.65
2022-12-13T10:13:40.523Z,17.48
2022-12-13T10:18:38.164Z,16.35
2022-12-13T10:23:42.810Z,16.25
2022-12-13T10:28:45.091Z,13.77
2022-12-13T10:33:39.439Z,13.40
2022-12-13T10:38:36.233Z,33.50
2022-12-13T10:43:30.681Z,17.92
2022-12-13T10:48:49.577Z,13.05
2022-12-13T10:53:48.444Z,12.40
2022-12-13T10:58:44.413Z,14.90
2022-12-13T11:03:38.390Z,12.95
2022-12-13T11:08:32.106Z,12.02
2022-12-13T11:13:34.921Z,13.13
2022-12-13T11:18:28.159Z,32.47
2022-12-13T11:23:41.324Z,12.45
2022-12-13T11:28:53.046Z,13.48
2022-12-13T11:34:07.348Z,18.02
2022-12-13T11:39:19.271Z,16.60
2022-12-13T11:44:28.917Z,14.13
2022-12-13T11:49:41.216Z,12.00
2022-12-13T11:54:47.944Z,12.18
2022-12-13T11:59:48.362Z,10.57
2022-12-13T12:04:55.045Z,11.02
2022-12-13T12:10:18.347Z,13.23
2022-12-13T12:15:16.834Z,12.52
2022-12-13T12:20:14.522Z,12.20
2022-12-13T12:25:32.166Z,12.77
2022-12-13T12:30:54.238Z,11.63
2022-12-13T12:36:09.893Z,13.80
2022-12-13T12:41:30.791Z,11.73
2022-12-13T12:52:11.293Z,11.90
2022-12-13T12:57:16.242Z,12.75
2022-12-13T13:02:18.440Z,15.23
2022-12-13T13:07:23.482Z,12.77
2022-12-13T13:12:28.763Z,12.75
2022-12-13T13:17:25.385Z,11.05
2022-12-13T13:22:44.157Z,12.00
2022-12-13T13:32:45.031Z,10.15
2022-12-13T13:37:47.903Z,12.13
2022-12-13T13:43:17.736Z,12.15
2022-12-13T13:48:22.397Z,11.23
2022-12-13T13:53:49.998Z,11.32
2022-12-13T13:58:51.903Z,11.23
2022-12-13T14:04:17.353Z,10.40
2022-12-13T14:09:49.900Z,11.32
2022-12-13T14:15:17.968Z,10.05
2022-12-13T14:20:48.681Z,10.38
2022-12-13T14:25:56.271Z,10.20
2022-12-13T14:30:57.382Z,12.10
2022-12-13T14:36:14.603Z,11.18
2022-12-13T14:41:17.263Z,12.02
2022-12-13T14:46:14.504Z,10.73
2022-12-13T14:51:24.975Z,11.18
2022-12-13T14:56:28.380Z,11.82
2022-12-13T15:01:29.938Z,12.32
2022-12-13T15:06:24.701Z,13.98
2022-12-13T15:11:18.513Z,13.70
2022-12-13T15:16:28.477Z,12.25
2022-12-13T15:21:28.750Z,11.77
2022-12-13T15:26:30.861Z,12.07
2022-12-13T15:31:24.320Z,13.75
2022-12-13T15:36:26.957Z,12.40
2022-12-13T15:41:21.360Z,12.90
2022-12-13T15:46:14.365Z,13.40
2022-12-13T15:51:09.886Z,13.70
2022-12-13T15:56:09.485Z,12.82
2022-12-13T16:01:05.643Z,12.85
2022-12-13T16:05:59.670Z,13.10
2022-12-13T16:10:54.006Z,13.57
2022-12-13T16:15:52.514Z,13.80
2022-12-13T16:20:54.397Z,14.20
2022-12-13T16:25:47.508Z,14.13
2022-12-13T16:30:52.956Z,14.48
2022-12-13T16:35:47.113Z,14.07
2022-12-13T16:40:41.538Z,15.40
2022-12-13T16:45:43.345Z,14.38
2022-12-13T16:50:37.875Z,15.77
2022-12-13T16:55:31.225Z,15.10
2022-12-13T17:00:24.397Z,13.23
2022-12-13T17:05:18.449Z,14.50
2022-12-13T17:10:13.051Z,14.90
2022-12-13T17:15:07.203Z,15.40
2022-12-13T17:20:01.496Z,14.57
2022-12-13T17:24:54.880Z,14.13
2022-12-13T17:29:49.228Z,14.00
2022-12-13T17:34:43.359Z,14.60
2022-12-13T17:39:37.456Z,15.65
2022-12-13T17:44:31.704Z,14.43
2022-12-13T17:49:25.053Z,14.27
2022-12-13T17:54:19.137Z,19.08
2022-12-13T17:59:16.176Z,18.13
2022-12-13T18:04:09.910Z,16.52
2022-12-13T18:09:03.598Z,17.70
2022-12-13T18:13:57.128Z,16.10
2022-12-13T18:18:55.435Z,18.48
2022-12-13T18:23:55.794Z,16.98
2022-12-13T18:28:48.855Z,20.08
2022-12-13T18:33:47.314Z,19.77
2022-12-13T18:38:43.123Z,19.40
2022-12-13T18:43:40.398Z,22.60
2022-12-13T18:48:34.527Z,18.95
2022-12-13T18:53:29.467Z,19.50
2022-12-13T18:58:23.571Z,21.27
2022-12-13T19:03:17.063Z,21.73
2022-12-13T19:08:10.905Z,30.67
2022-12-13T19:13:03.997Z,22.30
2022-12-13T19:17:58.175Z,24.98
2022-12-13T19:22:52.237Z,19.40
2022-12-13T19:27:47.776Z,18.95
2022-12-13T19:32:41.808Z,20.67
2022-12-13T19:37:42.287Z,22.65
2022-12-13T19:42:36.081Z,21.38
2022-12-13T19:47:30.030Z,22.38
2022-12-13T19:52:23.901Z,20.05
2022-12-13T19:57:19.706Z,18.52
2022-12-13T20:02:14.779Z,19.90
2022-12-13T20:07:08.404Z,19.52
2022-12-13T20:12:01.227Z,21.63
2022-12-13T20:16:54.941Z,20.73
2022-12-13T20:21:51.137Z,23.20
2022-12-13T20:26:48.825Z,23.83
2022-12-13T20:31:42.525Z,19.88
2022-12-13T20:36:43.229Z,25.50
2022-12-13T20:41:36.634Z,22.75
2022-12-13T20:46:31.948Z,27.13
2022-12-13T20:51:27.291Z,24.73
2022-12-13T20:56:36.477Z,21.90
2022-12-13T21:01:31.892Z,21.77
2022-12-13T21:06:25.508Z,22.75
2022-12-13T21:11:25.908Z,23.33
2022-12-13T21:16:19.239Z,27.40
2022-12-13T21:21:13.258Z,22.35
2022-12-13T21:26:07.009Z,24.23
2022-12-13T21:31:02.398Z,48.25
2022-12-13T21:35:55.315Z,64.13
2022-12-13T21:40:50.132Z,32.22
2022-12-13T21:45:43.988Z,24.13
2022-12-13T21:50:37.617Z,21.95
2022-12-13T21:55:38.755Z,21.30
2022-12-13T22:00:34.912Z,23.85
2022-12-13T22:05:28.578Z,25.20
2022-12-13T22:10:23.657Z,21.10
2022-12-13T22:15:16.740Z,24.38
2022-12-13T22:20:13.094Z,22.95
2022-12-13T22:25:09.876Z,21.48
2022-12-13T22:30:03.915Z,20.30
2022-12-13T22:34:56.828Z,20.75
2022-12-13T22:39:49.337Z,20.00
2022-12-13T22:44:42.800Z,19.80
2022-12-13T22:49:35.046Z,20.45
2022-12-13T22:54:29.462Z,19.70
2022-12-13T22:59:23.619Z,20.30
2022-12-13T23:04:16.354Z,20.73
2022-12-13T23:09:13.727Z,21.77
2022-12-13T23:14:09.306Z,21.17
2022-12-13T23:19:39.223Z,21.23
2022-12-13T23:24:17.021Z,20.85
2022-12-13T23:29:10.600Z,20.95
2022-12-13T23:34:03.839Z,22.42
2022-12-13T23:39:00.078Z,21.67
2022-12-13T23:43:55.569Z,20.17
2022-12-13T23:48:49.419Z,23.30
2022-12-13T23:53:41.945Z,21.58
2022-12-13T23:58:37.103Z,20.85
